createdAt,value
2017-09-03T00:00:24.070Z,3.10
2017-09-03T00:02:51.460Z,3.10
2017-09-03T00:05:18.851Z,3.77
2017-09-03T00:07:46.249Z,3.23
2017-09-03T00:10:13.639Z,3.30
2017-09-03T00:12:41.030Z,2.83
2017-09-03T00:15:08.422Z,2.70
2017-09-03T00:17:35.823Z,2.60
2017-09-03T00:20:03.212Z,3.00
2017-09-03T00:22:30.594Z,3.70
2017-09-03T00:24:57.983Z,3.57
2017-09-03T00:27:25.420Z,3.20
2017-09-03T00:29:52.878Z,3.77
2017-09-03T00:32:20.271Z,3.27
2017-09-03T00:34:47.665Z,3.10
2017-09-03T00:37:15.045Z,4.33
2017-09-03T00:39:42.495Z,5.03
2017-09-03T00:42:09.956Z,5.03
2017-09-03T00:44:37.346Z,4.80
2017-09-03T00:47:04.743Z,5.20
2017-09-03T00:49:32.229Z,4.13
2017-09-03T00:51:59.610Z,3.93
2017-09-03T00:54:27.007Z,3.83
2017-09-03T00:56:54.495Z,3.70
2017-09-03T00:59:21.886Z,3.30
2017-09-03T01:01:49.275Z,3.60
2017-09-03T01:04:16.672Z,4.77
2017-09-03T01:06:44.115Z,4.40
2017-09-03T01:09:11.516Z,5.00
2017-09-03T01:11:38.904Z,4.10
2017-09-03T01:14:06.303Z,4.40
2017-09-03T01:16:33.690Z,4.43
2017-09-03T01:19:01.110Z,5.07
2017-09-03T01:21:28.490Z,3.37
2017-09-03T01:23:55.873Z,4.53
2017-09-03T01:26:23.272Z,4.03
2017-09-03T01:28:50.651Z,5.70
2017-09-03T01:31:18.056Z,5.47
2017-09-03T01:33:45.434Z,7.90
2017-09-03T01:36:12.843Z,10.43
2017-09-03T01:38:40.231Z,8.03
2017-09-03T01:41:07.626Z,6.60
2017-09-03T01:43:35.019Z,4.40
2017-09-03T01:46:02.414Z,5.30
2017-09-03T01:48:29.803Z,5.03
2017-09-03T01:50:57.189Z,4.50
2017-09-03T01:53:24.575Z,6.17
2017-09-03T01:55:52.018Z,5.27
2017-09-03T01:58:19.479Z,5.17
2017-09-03T02:00:46.866Z,4.90
2017-09-03T02:03:14.251Z,4.53
2017-09-03T02:05:41.633Z,5.00
2017-09-03T02:08:09.026Z,4.90
2017-09-03T02:10:36.425Z,6.13
2017-09-03T02:13:03.906Z,4.50
2017-09-03T02:15:31.363Z,3.80
2017-09-03T02:17:58.747Z,5.27
2017-09-03T02:20:26.136Z,5.43
2017-09-03T02:22:53.527Z,4.90
2017-09-03T02:25:20.916Z,5.00
2017-09-03T02:27:48.306Z,4.80
2017-09-03T02:30:15.750Z,5.68
2017-09-03T02:32:43.143Z,5.30
2017-09-03T02:35:10.535Z,4.57
2017-09-03T02:37:37.926Z,4.53
2017-09-03T02:40:05.419Z,5.10
2017-09-03T02:42:32.815Z,4.90
2017-09-03T02:45:00.228Z,4.23
2017-09-03T02:47:27.610Z,4.80
2017-09-03T02:49:55.046Z,4.33
2017-09-03T02:52:22.430Z,4.83
2017-09-03T02:54:49.850Z,5.10
2017-09-03T02:57:17.236Z,4.40
2017-09-03T02:59:44.630Z,4.90
2017-09-03T03:02:12.022Z,4.07
2017-09-03T03:04:39.423Z,4.27
2017-09-03T03:07:06.800Z,4.77
2017-09-03T03:09:34.192Z,4.40
2017-09-03T03:12:01.577Z,4.87
2017-09-03T03:14:28.966Z,4.80
2017-09-03T03:16:56.356Z,5.00
2017-09-03T03:19:23.746Z,4.97
2017-09-03T03:21:51.137Z,4.63
2017-09-03T03:24:18.526Z,3.83
2017-09-03T03:26:45.963Z,3.93
2017-09-03T03:29:13.420Z,4.67
2017-09-03T03:31:40.816Z,6.00
2017-09-03T03:34:08.191Z,4.80
2017-09-03T03:36:35.597Z,5.43
2017-09-03T03:39:02.978Z,5.20
2017-09-03T03:41:30.364Z,4.60
2017-09-03T03:43:57.778Z,4.20
2017-09-03T03:46:25.170Z,4.50
2017-09-03T03:48:52.555Z,4.37
2017-09-03T03:51:19.947Z,4.23
2017-09-03T03:53:47.335Z,4.50
2017-09-03T03:56:14.727Z,4.87
2017-09-03T03:58:42.179Z,5.47
2017-09-03T04:01:09.605Z,4.13
2017-09-03T04:03:36.986Z,4.10
2017-09-03T04:06:04.382Z,4.60
2017-09-03T04:08:31.766Z,5.00
2017-09-03T04:10:59.157Z,4.30
2017-09-03T04:13:26.543Z,4.33
2017-09-03T04:15:53.935Z,3.70
2017-09-03T04:18:21.323Z,3.97
2017-09-03T04:20:48.715Z,4.67
2017-09-03T04:23:16.133Z,3.93
2017-09-03T04:25:43.582Z,4.63
2017-09-03T04:28:10.978Z,4.53
2017-09-03T04:30:38.367Z,3.80
2017-09-03T04:33:05.759Z,4.10
2017-09-03T04:35:33.146Z,4.57
2017-09-03T04:38:00.548Z,4.17
2017-09-03T04:40:27.939Z,3.63
2017-09-03T04:42:55.357Z,3.83
2017-09-03T04:45:22.743Z,3.20
2017-09-03T04:47:50.136Z,2.97
2017-09-03T04:50:17.527Z,3.77
2017-09-03T04:52:44.918Z,3.70
2017-09-03T04:55:12.302Z,3.40
2017-09-03T04:57:39.713Z,3.30
2017-09-03T05:00:07.159Z,3.10
2017-09-03T05:02:34.618Z,3.53
2017-09-03T05:05:02.091Z,3.90
2017-09-03T05:07:29.475Z,3.90
2017-09-03T05:09:56.878Z,3.50
2017-09-03T05:12:24.274Z,3.40
2017-09-03T05:14:51.654Z,4.17
2017-09-03T05:17:19.044Z,4.57
2017-09-03T05:19:46.502Z,4.37
2017-09-03T05:22:13.958Z,3.53
2017-09-03T05:24:41.351Z,2.07
2017-09-03T05:27:08.738Z,3.10
2017-09-03T05:29:36.131Z,2.40
2017-09-03T05:32:03.517Z,2.83
2017-09-03T05:34:30.910Z,3.20
2017-09-03T05:36:58.387Z,2.60
2017-09-03T05:39:25.855Z,1.60
2017-09-03T05:41:53.240Z,1.67
2017-09-03T05:44:20.657Z,2.20
2017-09-03T05:46:48.110Z,2.77
2017-09-03T05:49:15.509Z,2.70
2017-09-03T05:51:42.898Z,2.40
2017-09-03T05:54:10.287Z,2.83
2017-09-03T05:56:37.677Z,2.87
2017-09-03T05:59:05.066Z,2.77
2017-09-03T06:01:32.462Z,2.80
2017-09-03T06:03:59.852Z,2.90
2017-09-03T06:06:27.239Z,3.33
2017-09-03T06:08:54.717Z,2.83
2017-09-03T06:11:22.177Z,3.10
2017-09-03T06:13:49.627Z,3.60
2017-09-03T06:16:17.030Z,3.60
2017-09-03T06:18:44.542Z,3.50
2017-09-03T06:21:12.007Z,3.93
2017-09-03T06:23:39.399Z,4.50
2017-09-03T06:26:06.843Z,4.87
2017-09-03T06:28:34.230Z,5.77
2017-09-03T06:31:01.728Z,5.40
2017-09-03T06:33:29.124Z,5.20
2017-09-03T06:35:56.574Z,6.10
2017-09-03T06:38:23.977Z,5.30
2017-09-03T06:40:51.359Z,3.60
2017-09-03T06:43:18.789Z,4.03
2017-09-03T06:45:46.207Z,4.30
2017-09-03T06:48:13.642Z,3.57
2017-09-03T06:50:41.014Z,4.30
2017-09-03T06:53:08.402Z,5.57
2017-09-03T06:55:35.881Z,5.97
2017-09-03T06:58:03.270Z,5.17
2017-09-03T07:00:30.687Z,5.87
2017-09-03T07:02:58.074Z,5.83
2017-09-03T07:05:25.468Z,5.27
2017-09-03T07:07:52.954Z,6.03
2017-09-03T07:10:20.429Z,4.90
2017-09-03T07:12:50.358Z,5.37
2017-09-03T07:15:17.889Z,6.57
2017-09-03T07:17:45.286Z,5.00
2017-09-03T07:20:12.691Z,5.70
2017-09-03T07:22:40.078Z,5.40
2017-09-03T07:25:07.474Z,5.27
2017-09-03T07:27:34.860Z,4.50
2017-09-03T07:30:02.250Z,5.80
2017-09-03T07:32:29.670Z,5.57
2017-09-03T07:34:57.058Z,6.20
2017-09-03T07:37:24.457Z,4.80
2017-09-03T07:39:51.939Z,6.00
2017-09-03T07:42:19.338Z,5.40
2017-09-03T07:44:46.722Z,6.03
2017-09-03T07:47:14.117Z,5.97
2017-09-03T07:49:41.560Z,4.60
2017-09-03T07:52:08.943Z,4.37
2017-09-03T07:54:36.327Z,5.07
2017-09-03T07:57:03.749Z,4.60
2017-09-03T07:59:31.119Z,4.87
2017-09-03T08:01:58.531Z,4.47
2017-09-03T08:04:25.916Z,5.30
2017-09-03T08:06:53.298Z,5.00
2017-09-03T08:09:20.690Z,3.90
2017-09-03T08:11:48.092Z,4.90
2017-09-03T08:14:15.504Z,4.20
2017-09-03T08:16:42.977Z,4.03
2017-09-03T08:19:10.447Z,5.10
2017-09-03T08:21:37.838Z,4.43
2017-09-03T08:24:05.251Z,3.77
2017-09-03T08:26:32.642Z,3.67
2017-09-03T08:29:00.027Z,3.80
2017-09-03T08:31:27.442Z,3.80
2017-09-03T08:33:54.847Z,3.70
2017-09-03T08:36:22.226Z,3.63
2017-09-03T08:38:49.628Z,3.10
2017-09-03T08:41:17.010Z,2.90
2017-09-03T08:43:44.390Z,3.67
2017-09-03T08:46:11.850Z,2.60
2017-09-03T08:48:39.238Z,2.90
2017-09-03T08:51:06.635Z,3.67
2017-09-03T08:53:34.018Z,3.30
2017-09-03T08:56:01.482Z,4.13
2017-09-03T08:58:28.870Z,4.37
2017-09-03T09:00:56.258Z,3.47
2017-09-03T09:03:23.646Z,2.80
2017-09-03T09:05:51.035Z,2.70
2017-09-03T09:08:18.418Z,2.17
2017-09-03T09:10:45.910Z,2.70
2017-09-03T09:13:13.375Z,2.40
2017-09-03T09:15:40.772Z,1.73
2017-09-03T09:18:08.154Z,1.50
2017-09-03T09:20:35.543Z,1.33
2017-09-03T09:23:02.940Z,1.60
2017-09-03T09:25:30.326Z,1.10
2017-09-03T09:27:57.709Z,1.40
2017-09-03T09:30:25.114Z,1.90
2017-09-03T09:32:52.522Z,1.60
2017-09-03T09:35:19.979Z,1.73
2017-09-03T09:37:47.439Z,1.83
2017-09-03T09:40:14.910Z,1.80
2017-09-03T09:42:42.303Z,2.03
2017-09-03T09:45:09.692Z,1.40
2017-09-03T09:47:37.091Z,1.77
2017-09-03T09:50:04.483Z,1.30
2017-09-03T09:52:31.878Z,1.60
2017-09-03T09:54:59.276Z,1.63
2017-09-03T09:57:26.651Z,1.30
2017-09-03T09:59:54.060Z,1.50
2017-09-03T10:02:21.449Z,1.00
2017-09-03T10:04:48.835Z,0.90
2017-09-03T10:07:16.342Z,1.00
2017-09-03T10:09:43.785Z,1.50
2017-09-03T10:12:11.178Z,1.37
2017-09-03T10:14:38.565Z,1.30
2017-09-03T10:17:06.015Z,1.40
2017-09-03T10:19:33.494Z,1.30
2017-09-03T10:22:00.883Z,1.60
2017-09-03T10:24:28.306Z,1.20
2017-09-03T10:26:55.767Z,1.47
2017-09-03T10:29:23.154Z,1.33
2017-09-03T10:31:50.574Z,1.20
2017-09-03T10:34:17.970Z,1.20
2017-09-03T10:36:45.359Z,1.37
2017-09-03T10:39:12.842Z,1.40
2017-09-03T10:41:40.231Z,1.57
2017-09-03T10:44:08.066Z,2.10
2017-09-03T10:46:35.910Z,1.60
2017-09-03T10:49:03.391Z,1.43
2017-09-03T10:51:30.842Z,1.57
2017-09-03T10:53:58.234Z,1.40
2017-09-03T10:56:25.652Z,1.40
2017-09-03T10:58:53.015Z,1.70
2017-09-03T11:01:20.407Z,1.17
2017-09-03T11:03:47.798Z,1.30
2017-09-03T11:06:15.183Z,1.13
2017-09-03T11:08:42.643Z,1.27
2017-09-03T11:11:10.033Z,1.53
2017-09-03T11:13:37.437Z,1.60
2017-09-03T11:16:04.818Z,1.00
2017-09-03T11:18:32.210Z,1.40
2017-09-03T11:20:59.595Z,1.10
2017-09-03T11:23:26.978Z,1.10
2017-09-03T11:25:54.366Z,0.70
2017-09-03T11:28:21.751Z,0.90
2017-09-03T11:30:49.260Z,1.00
2017-09-03T11:33:16.751Z,1.20
2017-09-03T11:35:44.155Z,1.00
2017-09-03T11:38:11.542Z,1.00
2017-09-03T11:40:38.926Z,1.27
2017-09-03T11:43:06.327Z,1.03
2017-09-03T11:45:33.798Z,1.33
2017-09-03T11:48:01.196Z,1.50
2017-09-03T11:50:28.621Z,1.00
2017-09-03T11:52:56.007Z,1.00
2017-09-03T11:55:23.506Z,1.43
2017-09-03T11:57:50.889Z,1.70
2017-09-03T12:00:18.280Z,1.20
2017-09-03T12:02:45.678Z,1.20
2017-09-03T12:05:13.139Z,0.97
2017-09-03T12:07:40.526Z,0.80
2017-09-03T12:10:07.915Z,0.80
2017-09-03T12:12:35.306Z,1.13
2017-09-03T12:15:02.690Z,1.20
2017-09-03T12:17:30.115Z,1.10
2017-09-03T12:19:57.575Z,1.40
2017-09-03T12:22:24.963Z,1.13
2017-09-03T12:24:52.348Z,1.10
2017-09-03T12:27:19.739Z,0.90
2017-09-03T12:29:47.126Z,1.10
2017-09-03T12:32:14.519Z,1.00
2017-09-03T12:34:41.902Z,1.00
2017-09-03T12:37:09.309Z,1.20
2017-09-03T12:39:36.687Z,1.30
2017-09-03T12:42:04.080Z,0.97
2017-09-03T12:44:31.527Z,1.10
2017-09-03T12:46:58.919Z,1.10
2017-09-03T12:49:26.314Z,1.10
2017-09-03T12:51:53.711Z,1.20
2017-09-03T12:54:21.159Z,0.80
2017-09-03T12:56:48.560Z,0.87
2017-09-03T12:59:15.942Z,0.90
2017-09-03T13:01:43.434Z,1.13
2017-09-03T13:04:10.832Z,1.07
2017-09-03T13:06:38.239Z,1.00
2017-09-03T13:09:05.630Z,1.03
2017-09-03T13:11:33.050Z,0.90
2017-09-03T13:14:00.442Z,0.83
2017-09-03T13:16:27.836Z,1.20
2017-09-03T13:18:55.244Z,1.30
2017-09-03T13:21:22.630Z,1.10
2017-09-03T13:23:50.023Z,1.23
2017-09-03T13:26:17.419Z,0.80
2017-09-03T13:28:44.811Z,0.90
2017-09-03T13:31:12.307Z,0.90
2017-09-03T13:33:39.707Z,0.90
2017-09-03T13:36:07.115Z,1.00
2017-09-03T13:38:34.514Z,0.97
2017-09-03T13:41:01.943Z,0.90
2017-09-03T13:43:29.334Z,0.80
2017-09-03T13:45:56.723Z,0.90
2017-09-03T13:48:24.118Z,0.97
2017-09-03T13:50:51.503Z,1.30
2017-09-03T13:53:18.893Z,1.07
2017-09-03T13:55:46.276Z,1.07
2017-09-03T13:58:13.719Z,0.77
2017-09-03T14:00:41.106Z,1.00
2017-09-03T14:03:08.558Z,0.90
2017-09-03T14:05:35.943Z,0.90
2017-09-03T14:08:03.367Z,0.90
2017-09-03T14:10:30.755Z,1.03
2017-09-03T14:12:58.254Z,1.00
2017-09-03T14:15:25.714Z,0.90
2017-09-03T14:17:53.166Z,1.00
2017-09-03T14:20:20.627Z,0.90
2017-09-03T14:22:48.015Z,0.73
2017-09-03T14:25:15.407Z,1.23
2017-09-03T14:27:42.798Z,1.07
2017-09-03T14:30:10.187Z,0.80
2017-09-03T14:32:37.571Z,0.87
2017-09-03T14:35:04.962Z,0.80
2017-09-03T14:37:32.350Z,1.10
2017-09-03T14:39:59.778Z,0.90
2017-09-03T14:42:27.166Z,1.07
2017-09-03T14:44:54.568Z,0.80
2017-09-03T14:47:22.857Z,0.90
2017-09-03T14:49:50.246Z,1.03
2017-09-03T14:52:17.647Z,0.83
2017-09-03T14:54:45.032Z,1.10
2017-09-03T14:57:12.431Z,0.90
2017-09-03T14:59:39.859Z,0.90
2017-09-03T15:02:07.255Z,0.77
2017-09-03T15:04:34.658Z,0.80
2017-09-03T15:07:02.123Z,1.03
2017-09-03T15:09:29.506Z,1.10
2017-09-03T15:11:56.899Z,0.90
2017-09-03T15:14:24.287Z,1.20
2017-09-03T15:16:51.682Z,0.80
2017-09-03T15:19:19.087Z,0.87
2017-09-03T15:21:46.470Z,0.90
2017-09-03T15:24:13.862Z,1.07
2017-09-03T15:26:41.275Z,1.10
2017-09-03T15:29:08.663Z,1.20
2017-09-03T15:31:36.051Z,0.90
2017-09-03T15:34:03.459Z,1.30
2017-09-03T15:36:30.842Z,0.80
2017-09-03T15:38:58.230Z,1.50
2017-09-03T15:41:25.615Z,1.07
2017-09-03T15:43:53.007Z,0.90
2017-09-03T15:46:20.391Z,0.97
2017-09-03T15:48:47.786Z,0.90
2017-09-03T15:51:15.219Z,1.00
2017-09-03T15:53:42.611Z,1.10
2017-09-03T15:56:10.003Z,0.97
2017-09-03T15:58:37.394Z,1.10
2017-09-03T16:01:04.779Z,0.80
2017-09-03T16:03:32.198Z,1.13
2017-09-03T16:05:59.593Z,1.10
2017-09-03T16:08:26.983Z,0.80
2017-09-03T16:10:54.389Z,1.20
2017-09-03T16:13:21.762Z,1.00
2017-09-03T16:15:49.154Z,1.10
2017-09-03T16:18:16.546Z,1.10
2017-09-03T16:20:43.926Z,0.80
2017-09-03T16:23:11.318Z,0.90
2017-09-03T16:25:38.714Z,1.23
2017-09-03T16:28:06.107Z,1.00
2017-09-03T16:30:33.511Z,1.10
2017-09-03T16:33:00.908Z,1.00
2017-09-03T16:35:28.338Z,0.90
2017-09-03T16:37:55.726Z,1.10
2017-09-03T16:40:23.123Z,0.80
2017-09-03T16:42:50.530Z,0.83
2017-09-03T16:45:17.958Z,1.27
2017-09-03T16:47:45.343Z,1.03
2017-09-03T16:50:12.738Z,0.90
2017-09-03T16:52:40.119Z,0.90
2017-09-03T16:55:07.516Z,0.80
2017-09-03T16:57:34.893Z,1.13
2017-09-03T17:00:02.283Z,1.07
2017-09-03T17:02:29.666Z,1.00
2017-09-03T17:04:57.103Z,1.00
2017-09-03T17:07:24.479Z,0.93
2017-09-03T17:09:51.866Z,0.93
2017-09-03T17:12:19.256Z,0.93
2017-09-03T17:14:46.651Z,1.00
2017-09-03T17:17:14.059Z,1.30
2017-09-03T17:19:41.430Z,1.10
2017-09-03T17:22:08.814Z,1.00
2017-09-03T17:24:36.219Z,0.80
2017-09-03T17:27:03.598Z,1.30
2017-09-03T17:29:31.015Z,1.40
2017-09-03T17:31:58.415Z,1.47
2017-09-03T17:37:26.261Z,1.20
2017-09-03T17:39:57.142Z,1.33
2017-09-03T17:42:40.195Z,1.07
2017-09-03T17:45:07.684Z,1.10
2017-09-03T17:47:35.094Z,1.00
2017-09-03T17:50:02.480Z,1.07
2017-09-03T17:52:29.871Z,1.40
2017-09-03T17:54:57.258Z,1.33
2017-09-03T17:57:24.668Z,1.40
2017-09-03T17:59:52.049Z,1.10
2017-09-03T18:02:19.446Z,1.27
2017-09-03T18:04:49.210Z,1.33
2017-09-03T18:07:16.608Z,1.23
2017-09-03T18:09:43.998Z,1.30
2017-09-03T18:12:11.395Z,1.10
2017-09-03T18:14:38.782Z,1.37
2017-09-03T18:17:06.172Z,1.60
2017-09-03T18:19:33.562Z,1.20
2017-09-03T18:22:00.958Z,1.43
2017-09-03T18:24:28.347Z,1.60
2017-09-03T18:26:55.741Z,1.13
2017-09-03T18:29:25.599Z,1.00
2017-09-03T18:31:54.483Z,1.13
2017-09-03T18:34:21.884Z,1.43
2017-09-03T18:36:50.169Z,1.80
2017-09-03T18:39:27.446Z,1.27
2017-09-03T18:41:57.303Z,1.03
2017-09-03T18:44:27.059Z,1.80
2017-09-03T18:46:54.459Z,1.70
2017-09-03T18:49:21.849Z,1.40
2017-09-03T18:54:53.138Z,1.60
2017-09-03T18:57:23.132Z,1.23
2017-09-03T19:00:00.411Z,1.20
2017-09-03T19:02:31.444Z,1.13
2017-09-03T19:05:02.306Z,1.17
2017-09-03T19:07:30.916Z,1.20
2017-09-03T19:09:58.382Z,1.30
2017-09-03T19:12:25.798Z,1.50
2017-09-03T19:14:53.183Z,1.13
2017-09-03T19:17:20.579Z,1.43
2017-09-03T19:19:47.960Z,1.37
2017-09-03T19:22:15.353Z,1.40
2017-09-03T19:24:42.734Z,1.00
2017-09-03T19:27:10.139Z,1.53
2017-09-03T19:29:37.514Z,1.80
2017-09-03T19:32:04.918Z,1.50
2017-09-03T19:34:32.305Z,1.60
2017-09-03T19:36:59.694Z,1.20
2017-09-03T19:39:27.116Z,1.53
2017-09-03T19:41:54.498Z,1.10
2017-09-03T19:44:21.898Z,1.37
2017-09-03T19:46:49.322Z,1.50
2017-09-03T19:49:16.743Z,1.87
2017-09-03T19:51:44.131Z,1.80
2017-09-03T19:54:11.522Z,2.07
2017-09-03T19:56:38.906Z,2.17
2017-09-03T19:59:06.296Z,1.63
2017-09-03T20:01:33.686Z,1.70
2017-09-03T20:04:01.074Z,2.37
2017-09-03T20:06:28.525Z,2.60
2017-09-03T20:08:55.910Z,1.70
2017-09-03T20:11:23.303Z,1.87
2017-09-03T20:13:50.694Z,1.80
2017-09-03T20:16:18.086Z,1.90
2017-09-03T20:18:45.475Z,2.13
2017-09-03T20:21:12.867Z,1.30
2017-09-03T20:23:40.271Z,1.73
2017-09-03T20:26:07.660Z,1.50
2017-09-03T20:28:35.043Z,1.80
2017-09-03T20:31:02.438Z,1.80
2017-09-03T20:33:29.823Z,1.73
2017-09-03T20:35:57.219Z,1.87
2017-09-03T20:38:24.609Z,1.57
2017-09-03T20:40:52.006Z,1.70
2017-09-03T20:43:19.386Z,1.60
2017-09-03T20:45:46.783Z,1.70
2017-09-03T20:48:14.171Z,1.67
2017-09-03T20:50:41.563Z,1.83
2017-09-03T20:53:09.050Z,2.03
2017-09-03T20:55:36.438Z,1.47
2017-09-03T20:58:03.831Z,2.13
2017-09-03T21:00:31.240Z,2.13
2017-09-03T21:02:58.625Z,2.03
2017-09-03T21:05:26.016Z,1.80
2017-09-03T21:07:53.406Z,1.90
2017-09-03T21:10:20.787Z,2.13
2017-09-03T21:12:48.194Z,1.67
2017-09-03T21:15:15.578Z,2.10
2017-09-03T21:17:42.983Z,2.00
2017-09-03T21:20:10.374Z,1.87
2017-09-03T21:22:37.778Z,2.63
2017-09-03T21:25:05.253Z,1.90
2017-09-03T21:27:32.679Z,1.97
2017-09-03T21:30:00.066Z,1.80
2017-09-03T21:32:27.468Z,1.73
2017-09-03T21:34:56.851Z,2.93
2017-09-03T21:37:24.242Z,1.90
2017-09-03T21:39:51.639Z,1.83
2017-09-03T21:42:19.035Z,2.20
2017-09-03T21:44:47.319Z,1.80
2017-09-03T21:47:14.817Z,2.00
2017-09-03T21:49:42.259Z,2.30
2017-09-03T21:52:09.650Z,2.00
2017-09-03T21:54:37.047Z,1.90
2017-09-03T21:57:04.540Z,1.83
2017-09-03T21:59:31.927Z,2.27
2017-09-03T22:01:59.320Z,1.70
2017-09-03T22:04:26.737Z,2.20
2017-09-03T22:06:54.147Z,2.23
2017-09-03T22:09:21.548Z,1.93
2017-09-03T22:11:48.926Z,1.80
2017-09-03T22:14:16.318Z,2.30
2017-09-03T22:16:43.715Z,1.80
2017-09-03T22:19:11.116Z,2.00
2017-09-03T22:21:38.503Z,1.60
2017-09-03T22:24:05.898Z,2.50
2017-09-03T22:26:33.286Z,1.80
2017-09-03T22:29:00.678Z,2.00
2017-09-03T22:31:28.098Z,2.67
2017-09-03T22:33:55.490Z,2.40
2017-09-03T22:36:22.915Z,2.57
2017-09-03T22:38:50.290Z,2.27
2017-09-03T22:41:17.674Z,2.40
2017-09-03T22:43:45.183Z,2.23
2017-09-03T22:46:12.633Z,2.23
2017-09-03T22:48:40.021Z,2.43
2017-09-03T22:51:07.418Z,2.20
2017-09-03T22:53:34.800Z,2.00
2017-09-03T22:56:02.194Z,2.23
2017-09-03T22:58:29.579Z,2.67
2017-09-03T23:00:57.022Z,1.90
2017-09-03T23:03:24.410Z,2.00
2017-09-03T23:05:51.802Z,2.20
2017-09-03T23:08:19.186Z,2.20
2017-09-03T23:10:46.586Z,2.43
2017-09-03T23:13:13.971Z,2.03
2017-09-03T23:15:41.391Z,1.83
2017-09-03T23:18:08.775Z,2.30
2017-09-03T23:20:36.215Z,2.13
2017-09-03T23:23:03.673Z,2.83
2017-09-03T23:25:31.066Z,2.10
2017-09-03T23:27:58.451Z,1.60
2017-09-03T23:30:25.842Z,2.47
2017-09-03T23:32:53.223Z,2.83
2017-09-03T23:35:20.609Z,2.10
2017-09-03T23:37:48.001Z,2.43
2017-09-03T23:40:15.431Z,2.50
2017-09-03T23:42:42.823Z,2.40
2017-09-03T23:45:10.207Z,2.70
2017-09-03T23:47:37.622Z,2.10
2017-09-03T23:50:05.010Z,2.27
2017-09-03T23:52:32.430Z,2.57
2017-09-03T23:54:59.818Z,3.23
2017-09-03T23:57:27.210Z,3.50
2017-09-03T23:59:54.599Z,2.77
